sensor_id;sensor_type;location;lat;lon;timestamp;temperature;humidity
19817;DHT22;68323;49.394;8.434;2024-02-23T00:01:07;10.40;99.90
19817;DHT22;68323;49.394;8.434;2024-02-23T00:03:33;10.30;99.90
19817;DHT22;68323;49.394;8.434;2024-02-23T00:06:02;10.30;99.90
19817;DHT22;68323;49.394;8.434;2024-02-23T00:08:27;10.30;99.90
19817;DHT22;68323;49.394;8.434;2024-02-23T00:10:53;10.30;99.90
19817;DHT22;68323;49.394;8.434;2024-02-23T00:13:18;10.30;99.90
19817;DHT22;68323;49.394;8.434;2024-02-23T00:15:44;10.30;99.90
19817;DHT22;68323;49.394;8.434;2024-02-23T00:18:09;10.20;99.90
19817;DHT22;68323;49.394;8.434;2024-02-23T00:20:35;10.30;99.90
19817;DHT22;68323;49.394;8.434;2024-02-23T00:23:02;10.20;99.90
19817;DHT22;68323;49.394;8.434;2024-02-23T00:25:27;10.20;99.90
19817;DHT22;68323;49.394;8.434;2024-02-23T00:27:53;10.10;99.90
19817;DHT22;68323;49.394;8.434;2024-02-23T00:30:19;10.10;99.90
19817;DHT22;68323;49.394;8.434;2024-02-23T00:32:44;9.90;99.90
19817;DHT22;68323;49.394;8.434;2024-02-23T00:35:11;9.80;99.90
19817;DHT22;68323;49.394;8.434;2024-02-23T00:37:36;9.80;99.90
19817;DHT22;68323;49.394;8.434;2024-02-23T00:40:03;9.60;99.90
19817;DHT22;68323;49.394;8.434;2024-02-23T00:42:32;9.50;99.90
19817;DHT22;68323;49.394;8.434;2024-02-23T00:44:57;9.40;99.90
19817;DHT22;68323;49.394;8.434;2024-02-23T00:47:23;9.30;99.90
19817;DHT22;68323;49.394;8.434;2024-02-23T00:49:48;9.20;99.90
19817;DHT22;68323;49.394;8.434;2024-02-23T00:52:15;9.20;99.90
19817;DHT22;68323;49.394;8.434;2024-02-23T00:54:40;9.10;99.90
19817;DHT22;68323;49.394;8.434;2024-02-23T00:57:06;9.10;99.90
19817;DHT22;68323;49.394;8.434;2024-02-23T00:59:32;9.00;99.90
19817;DHT22;68323;49.394;8.434;2024-02-23T01:01:58;9.10;99.90
19817;DHT22;68323;49.394;8.434;2024-02-23T01:04:23;9.10;99.90
19817;DHT22;68323;49.394;8.434;2024-02-23T01:06:49;9.00;99.90
19817;DHT22;68323;49.394;8.434;2024-02-23T01:09:14;9.10;99.90
19817;DHT22;68323;49.394;8.434;2024-02-23T01:11:42;9.00;99.90
19817;DHT22;68323;49.394;8.434;2024-02-23T01:14:07;9.00;99.90
19817;DHT22;68323;49.394;8.434;2024-02-23T01:16:33;9.00;99.90
19817;DHT22;68323;49.394;8.434;2024-02-23T01:18:59;9.00;99.90
19817;DHT22;68323;49.394;8.434;2024-02-23T01:21:24;8.90;99.90
19817;DHT22;68323;49.394;8.434;2024-02-23T01:23:50;9.00;99.90
19817;DHT22;68323;49.394;8.434;2024-02-23T01:26:15;8.90;99.90
19817;DHT22;68323;49.394;8.434;2024-02-23T01:28:41;8.90;99.90
19817;DHT22;68323;49.394;8.434;2024-02-23T01:31:10;8.90;99.90
19817;DHT22;68323;49.394;8.434;2024-02-23T01:33:37;8.90;99.90
19817;DHT22;68323;49.394;8.434;2024-02-23T01:36:06;8.90;99.90
19817;DHT22;68323;49.394;8.434;2024-02-23T01:38:32;8.90;99.90
19817;DHT22;68323;49.394;8.434;2024-02-23T01:41:01;8.90;99.90
19817;DHT22;68323;49.394;8.434;2024-02-23T01:43:27;9.00;99.90
19817;DHT22;68323;49.394;8.434;2024-02-23T01:45:53;9.00;99.90
19817;DHT22;68323;49.394;8.434;2024-02-23T01:48:19;9.00;99.90
19817;DHT22;68323;49.394;8.434;2024-02-23T01:50:45;9.10;99.90
19817;DHT22;68323;49.394;8.434;2024-02-23T01:53:12;9.10;99.90
19817;DHT22;68323;49.394;8.434;2024-02-23T01:55:40;9.00;99.90
19817;DHT22;68323;49.394;8.434;2024-02-23T01:58:07;8.80;99.90
19817;DHT22;68323;49.394;8.434;2024-02-23T02:00:34;8.70;99.90
19817;DHT22;68323;49.394;8.434;2024-02-23T02:03:00;8.60;99.90
19817;DHT22;68323;49.394;8.434;2024-02-23T02:05:26;8.50;99.90
19817;DHT22;68323;49.394;8.434;2024-02-23T02:07:53;8.30;99.90
19817;DHT22;68323;49.394;8.434;2024-02-23T02:10:24;8.30;99.90
19817;DHT22;68323;49.394;8.434;2024-02-23T02:12:50;8.20;99.90
19817;DHT22;68323;49.394;8.434;2024-02-23T02:15:16;8.10;99.90
19817;DHT22;68323;49.394;8.434;2024-02-23T02:17:41;8.00;99.90
19817;DHT22;68323;49.394;8.434;2024-02-23T02:20:11;8.00;99.90
19817;DHT22;68323;49.394;8.434;2024-02-23T02:22:37;8.00;99.90
19817;DHT22;68323;49.394;8.434;2024-02-23T02:25:03;7.90;99.90
19817;DHT22;68323;49.394;8.434;2024-02-23T02:27:29;7.80;99.90
19817;DHT22;68323;49.394;8.434;2024-02-23T02:29:55;7.80;99.90
19817;DHT22;68323;49.394;8.434;2024-02-23T02:32:20;7.70;99.90
19817;DHT22;68323;49.394;8.434;2024-02-23T02:34:46;7.70;99.90
19817;DHT22;68323;49.394;8.434;2024-02-23T02:37:11;7.60;99.90
19817;DHT22;68323;49.394;8.434;2024-02-23T02:39:37;7.60;99.90
19817;DHT22;68323;49.394;8.434;2024-02-23T02:42:02;7.60;99.90
19817;DHT22;68323;49.394;8.434;2024-02-23T02:44:28;7.60;99.90
19817;DHT22;68323;49.394;8.434;2024-02-23T02:46:59;7.70;99.90
19817;DHT22;68323;49.394;8.434;2024-02-23T02:49:24;7.70;99.90
19817;DHT22;68323;49.394;8.434;2024-02-23T02:51:50;7.70;99.90
19817;DHT22;68323;49.394;8.434;2024-02-23T02:54:16;7.70;99.90
19817;DHT22;68323;49.394;8.434;2024-02-23T02:56:46;7.80;99.90
19817;DHT22;68323;49.394;8.434;2024-02-23T02:59:12;7.80;99.90
19817;DHT22;68323;49.394;8.434;2024-02-23T03:01:38;7.90;99.90
19817;DHT22;68323;49.394;8.434;2024-02-23T03:04:04;7.90;99.90
19817;DHT22;68323;49.394;8.434;2024-02-23T03:06:30;8.00;99.90
19817;DHT22;68323;49.394;8.434;2024-02-23T03:08:55;8.00;99.90
19817;DHT22;68323;49.394;8.434;2024-02-23T03:11:21;8.10;99.90
19817;DHT22;68323;49.394;8.434;2024-02-23T03:13:46;8.10;99.90
19817;DHT22;68323;49.394;8.434;2024-02-23T03:16:16;8.20;99.90
19817;DHT22;68323;49.394;8.434;2024-02-23T03:18:42;8.20;99.90
19817;DHT22;68323;49.394;8.434;2024-02-23T03:21:07;8.30;99.90
19817;DHT22;68323;49.394;8.434;2024-02-23T03:26:59;8.40;99.90
19817;DHT22;68323;49.394;8.434;2024-02-23T03:29:24;8.40;99.90
19817;DHT22;68323;49.394;8.434;2024-02-23T03:31:51;8.40;99.90
19817;DHT22;68323;49.394;8.434;2024-02-23T03:34:16;8.40;99.90
19817;DHT22;68323;49.394;8.434;2024-02-23T03:36:42;8.40;99.90
19817;DHT22;68323;49.394;8.434;2024-02-23T03:39:08;8.50;99.90
19817;DHT22;68323;49.394;8.434;2024-02-23T03:41:33;8.50;99.90
19817;DHT22;68323;49.394;8.434;2024-02-23T03:43:59;8.50;99.90
19817;DHT22;68323;49.394;8.434;2024-02-23T03:46:24;8.50;99.90
19817;DHT22;68323;49.394;8.434;2024-02-23T03:48:50;8.50;99.90
19817;DHT22;68323;49.394;8.434;2024-02-23T03:51:17;8.60;99.90
19817;DHT22;68323;49.394;8.434;2024-02-23T03:53:43;8.50;99.90
19817;DHT22;68323;49.394;8.434;2024-02-23T03:56:08;8.50;99.90
19817;DHT22;68323;49.394;8.434;2024-02-23T03:58:34;8.50;99.90
19817;DHT22;68323;49.394;8.434;2024-02-23T04:00:59;8.50;99.90
19817;DHT22;68323;49.394;8.434;2024-02-23T04:03:25;8.50;99.90
19817;DHT22;68323;49.394;8.434;2024-02-23T04:05:50;8.50;99.90
19817;DHT22;68323;49.394;8.434;2024-02-23T04:08:16;8.40;99.90
19817;DHT22;68323;49.394;8.434;2024-02-23T04:10:42;8.40;99.90
19817;DHT22;68323;49.394;8.434;2024-02-23T04:13:07;8.30;99.90
19817;DHT22;68323;49.394;8.434;2024-02-23T04:15:33;8.20;99.90
19817;DHT22;68323;49.394;8.434;2024-02-23T04:17:58;8.20;99.90
19817;DHT22;68323;49.394;8.434;2024-02-23T04:20:24;8.20;99.90
19817;DHT22;68323;49.394;8.434;2024-02-23T04:22:49;8.10;99.90
19817;DHT22;68323;49.394;8.434;2024-02-23T04:25:15;8.10;99.90
19817;DHT22;68323;49.394;8.434;2024-02-23T04:27:40;8.00;99.90
19817;DHT22;68323;49.394;8.434;2024-02-23T04:30:06;8.00;99.90
19817;DHT22;68323;49.394;8.434;2024-02-23T04:32:32;8.00;99.90
19817;DHT22;68323;49.394;8.434;2024-02-23T04:34:58;8.00;99.90
19817;DHT22;68323;49.394;8.434;2024-02-23T04:37:24;8.00;99.90
19817;DHT22;68323;49.394;8.434;2024-02-23T04:39:49;7.90;99.90
19817;DHT22;68323;49.394;8.434;2024-02-23T04:42:15;8.00;99.90
19817;DHT22;68323;49.394;8.434;2024-02-23T04:44:43;7.90;99.90
19817;DHT22;68323;49.394;8.434;2024-02-23T04:47:09;7.90;99.90
19817;DHT22;68323;49.394;8.434;2024-02-23T04:49:35;7.90;99.90
19817;DHT22;68323;49.394;8.434;2024-02-23T04:52:00;7.90;99.90
19817;DHT22;68323;49.394;8.434;2024-02-23T04:54:26;7.90;99.90
19817;DHT22;68323;49.394;8.434;2024-02-23T04:56:52;8.00;99.90
19817;DHT22;68323;49.394;8.434;2024-02-23T04:59:17;8.00;99.90
19817;DHT22;68323;49.394;8.434;2024-02-23T05:01:43;8.00;99.90
19817;DHT22;68323;49.394;8.434;2024-02-23T05:04:09;8.00;99.90
19817;DHT22;68323;49.394;8.434;2024-02-23T05:06:34;8.00;99.90
19817;DHT22;68323;49.394;8.434;2024-02-23T05:09:01;8.10;99.90
19817;DHT22;68323;49.394;8.434;2024-02-23T05:11:26;8.10;99.90
19817;DHT22;68323;49.394;8.434;2024-02-23T05:13:52;8.10;99.90
19817;DHT22;68323;49.394;8.434;2024-02-23T05:16:18;8.10;99.90
19817;DHT22;68323;49.394;8.434;2024-02-23T05:18:43;8.10;99.90
19817;DHT22;68323;49.394;8.434;2024-02-23T05:21:09;8.10;99.90
19817;DHT22;68323;49.394;8.434;2024-02-23T05:23:35;8.00;99.90
19817;DHT22;68323;49.394;8.434;2024-02-23T05:26:01;8.00;99.90
19817;DHT22;68323;49.394;8.434;2024-02-23T05:28:27;8.00;99.90
19817;DHT22;68323;49.394;8.434;2024-02-23T05:30:53;7.90;99.90
19817;DHT22;68323;49.394;8.434;2024-02-23T05:33:19;7.90;99.90
19817;DHT22;68323;49.394;8.434;2024-02-23T05:35:46;7.90;99.90
19817;DHT22;68323;49.394;8.434;2024-02-23T05:38:14;7.90;99.90
19817;DHT22;68323;49.394;8.434;2024-02-23T05:40:40;7.80;99.90
19817;DHT22;68323;49.394;8.434;2024-02-23T05:43:05;7.80;99.90
19817;DHT22;68323;49.394;8.434;2024-02-23T05:45:31;7.80;99.90
19817;DHT22;68323;49.394;8.434;2024-02-23T05:47:57;7.90;99.90
19817;DHT22;68323;49.394;8.434;2024-02-23T05:50:22;7.90;99.90
19817;DHT22;68323;49.394;8.434;2024-02-23T05:52:48;7.90;99.90
19817;DHT22;68323;49.394;8.434;2024-02-23T05:55:13;7.90;99.90
19817;DHT22;68323;49.394;8.434;2024-02-23T05:57:39;7.90;99.90
19817;DHT22;68323;49.394;8.434;2024-02-23T06:00:05;7.90;99.90
19817;DHT22;68323;49.394;8.434;2024-02-23T06:02:32;8.00;99.90
19817;DHT22;68323;49.394;8.434;2024-02-23T06:04:58;8.00;99.90
19817;DHT22;68323;49.394;8.434;2024-02-23T06:07:24;8.00;99.90
19817;DHT22;68323;49.394;8.434;2024-02-23T06:09:55;8.00;99.90
19817;DHT22;68323;49.394;8.434;2024-02-23T06:12:21;8.00;99.90
19817;DHT22;68323;49.394;8.434;2024-02-23T06:14:47;8.00;99.90
19817;DHT22;68323;49.394;8.434;2024-02-23T06:17:13;8.10;99.90
19817;DHT22;68323;49.394;8.434;2024-02-23T06:19:38;8.10;99.90
19817;DHT22;68323;49.394;8.434;2024-02-23T06:22:04;8.10;99.90
19817;DHT22;68323;49.394;8.434;2024-02-23T06:24:29;8.10;99.90
19817;DHT22;68323;49.394;8.434;2024-02-23T06:26:55;8.10;99.90
19817;DHT22;68323;49.394;8.434;2024-02-23T06:29:20;8.10;99.90
19817;DHT22;68323;49.394;8.434;2024-02-23T06:31:46;8.10;99.90
19817;DHT22;68323;49.394;8.434;2024-02-23T06:34:15;8.10;99.90
19817;DHT22;68323;49.394;8.434;2024-02-23T06:36:41;8.10;99.90
19817;DHT22;68323;49.394;8.434;2024-02-23T06:39:07;8.10;99.90
19817;DHT22;68323;49.394;8.434;2024-02-23T06:41:33;8.10;99.90
19817;DHT22;68323;49.394;8.434;2024-02-23T06:43:59;8.10;99.90
19817;DHT22;68323;49.394;8.434;2024-02-23T06:46:25;8.10;99.90
19817;DHT22;68323;49.394;8.434;2024-02-23T06:48:50;8.10;99.90
19817;DHT22;68323;49.394;8.434;2024-02-23T06:51:16;8.10;99.90
19817;DHT22;68323;49.394;8.434;2024-02-23T06:53:42;8.10;99.90
19817;DHT22;68323;49.394;8.434;2024-02-23T06:56:10;8.10;99.90
19817;DHT22;68323;49.394;8.434;2024-02-23T06:58:36;8.10;99.90
19817;DHT22;68323;49.394;8.434;2024-02-23T07:01:01;8.10;99.90
19817;DHT22;68323;49.394;8.434;2024-02-23T07:03:28;8.10;99.90
19817;DHT22;68323;49.394;8.434;2024-02-23T07:05:55;8.00;99.90
19817;DHT22;68323;49.394;8.434;2024-02-23T07:08:20;8.00;99.90
19817;DHT22;68323;49.394;8.434;2024-02-23T07:10:46;8.00;99.90
19817;DHT22;68323;49.394;8.434;2024-02-23T07:13:11;8.00;99.90
19817;DHT22;68323;49.394;8.434;2024-02-23T07:15:37;7.90;99.90
19817;DHT22;68323;49.394;8.434;2024-02-23T07:18:03;7.90;99.90
19817;DHT22;68323;49.394;8.434;2024-02-23T07:20:29;7.90;99.90
19817;DHT22;68323;49.394;8.434;2024-02-23T07:22:54;7.90;99.90
19817;DHT22;68323;49.394;8.434;2024-02-23T07:25:20;7.90;99.90
19817;DHT22;68323;49.394;8.434;2024-02-23T07:27:46;7.90;99.90
19817;DHT22;68323;49.394;8.434;2024-02-23T07:30:14;7.90;99.90
19817;DHT22;68323;49.394;8.434;2024-02-23T07:32:40;8.00;99.90
19817;DHT22;68323;49.394;8.434;2024-02-23T07:35:06;8.00;99.90
19817;DHT22;68323;49.394;8.434;2024-02-23T07:37:32;8.10;99.90
19817;DHT22;68323;49.394;8.434;2024-02-23T07:39:57;8.20;99.90
19817;DHT22;68323;49.394;8.434;2024-02-23T07:42:23;8.40;99.90
19817;DHT22;68323;49.394;8.434;2024-02-23T07:44:48;8.70;99.90
19817;DHT22;68323;49.394;8.434;2024-02-23T07:47:14;8.80;99.90
19817;DHT22;68323;49.394;8.434;2024-02-23T07:49:39;9.50;99.90
19817;DHT22;68323;49.394;8.434;2024-02-23T07:52:08;10.10;99.90
19817;DHT22;68323;49.394;8.434;2024-02-23T07:54:33;10.90;99.90
19817;DHT22;68323;49.394;8.434;2024-02-23T07:56:59;11.00;99.90
19817;DHT22;68323;49.394;8.434;2024-02-23T07:59:25;11.70;99.90
19817;DHT22;68323;49.394;8.434;2024-02-23T08:01:50;12.10;99.90
19817;DHT22;68323;49.394;8.434;2024-02-23T08:04:16;12.40;99.10
19817;DHT22;68323;49.394;8.434;2024-02-23T08:06:42;12.30;98.20
19817;DHT22;68323;49.394;8.434;2024-02-23T08:09:08;12.20;97.80
19817;DHT22;68323;49.394;8.434;2024-02-23T08:11:34;12.00;97.00
19817;DHT22;68323;49.394;8.434;2024-02-23T08:14:00;11.80;96.80
19817;DHT22;68323;49.394;8.434;2024-02-23T08:16:26;11.60;96.70
19817;DHT22;68323;49.394;8.434;2024-02-23T08:18:52;11.40;96.90
19817;DHT22;68323;49.394;8.434;2024-02-23T08:21:17;11.20;97.70
19817;DHT22;68323;49.394;8.434;2024-02-23T08:23:44;11.00;97.60
19817;DHT22;68323;49.394;8.434;2024-02-23T08:26:10;10.90;98.00
19817;DHT22;68323;49.394;8.434;2024-02-23T08:28:36;10.80;98.20
19817;DHT22;68323;49.394;8.434;2024-02-23T08:31:01;10.70;98.50
19817;DHT22;68323;49.394;8.434;2024-02-23T08:33:27;10.60;98.70
19817;DHT22;68323;49.394;8.434;2024-02-23T08:35:53;10.60;98.50
19817;DHT22;68323;49.394;8.434;2024-02-23T08:38:18;10.50;99.30
19817;DHT22;68323;49.394;8.434;2024-02-23T08:40:44;10.50;99.30
19817;DHT22;68323;49.394;8.434;2024-02-23T08:43:10;10.50;99.40
19817;DHT22;68323;49.394;8.434;2024-02-23T08:45:36;10.40;99.60
19817;DHT22;68323;49.394;8.434;2024-02-23T08:48:02;10.50;99.20
19817;DHT22;68323;49.394;8.434;2024-02-23T08:50:28;10.40;99.40
19817;DHT22;68323;49.394;8.434;2024-02-23T08:52:54;10.50;99.50
19817;DHT22;68323;49.394;8.434;2024-02-23T08:55:20;10.60;99.80
19817;DHT22;68323;49.394;8.434;2024-02-23T08:57:46;10.70;99.60
19817;DHT22;68323;49.394;8.434;2024-02-23T09:00:12;10.70;99.00
19817;DHT22;68323;49.394;8.434;2024-02-23T09:02:39;10.80;98.90
19817;DHT22;68323;49.394;8.434;2024-02-23T09:05:07;10.90;98.20
19817;DHT22;68323;49.394;8.434;2024-02-23T09:07:33;10.90;98.30
19817;DHT22;68323;49.394;8.434;2024-02-23T09:09:58;11.00;98.40
19817;DHT22;68323;49.394;8.434;2024-02-23T09:12:24;11.10;98.80
19817;DHT22;68323;49.394;8.434;2024-02-23T09:14:49;11.60;99.90
19817;DHT22;68323;49.394;8.434;2024-02-23T09:17:15;12.20;97.80
19817;DHT22;68323;49.394;8.434;2024-02-23T10:52:43;14.10;96.60
19817;DHT22;68323;49.394;8.434;2024-02-23T10:55:09;14.00;97.10
19817;DHT22;68323;49.394;8.434;2024-02-23T10:57:36;14.00;97.00
19817;DHT22;68323;49.394;8.434;2024-02-23T11:00:03;14.00;97.20
19817;DHT22;68323;49.394;8.434;2024-02-23T11:02:32;13.90;97.30
19817;DHT22;68323;49.394;8.434;2024-02-23T11:05:00;13.90;97.60
19817;DHT22;68323;49.394;8.434;2024-02-23T11:07:25;13.90;97.40
19817;DHT22;68323;49.394;8.434;2024-02-23T11:09:53;13.80;97.40
19817;DHT22;68323;49.394;8.434;2024-02-23T11:12:26;13.70;97.60
19817;DHT22;68323;49.394;8.434;2024-02-23T11:14:58;13.70;98.40
19817;DHT22;68323;49.394;8.434;2024-02-23T11:17:26;13.60;98.00
19817;DHT22;68323;49.394;8.434;2024-02-23T11:19:54;13.50;98.40
19817;DHT22;68323;49.394;8.434;2024-02-23T11:22:35;13.50;98.60
19817;DHT22;68323;49.394;8.434;2024-02-23T11:25:06;13.40;98.70
19817;DHT22;68323;49.394;8.434;2024-02-23T11:27:33;13.30;98.90
19817;DHT22;68323;49.394;8.434;2024-02-23T11:30:07;13.20;99.10
19817;DHT22;68323;49.394;8.434;2024-02-23T11:32:47;13.20;99.30
19817;DHT22;68323;49.394;8.434;2024-02-23T11:35:15;13.20;99.80
19817;DHT22;68323;49.394;8.434;2024-02-23T11:38:08;13.10;99.30
19817;DHT22;68323;49.394;8.434;2024-02-23T11:40:33;13.10;99.50
19817;DHT22;68323;49.394;8.434;2024-02-23T11:45:28;13.00;98.90
19817;DHT22;68323;49.394;8.434;2024-02-23T11:47:54;13.00;98.90
19817;DHT22;68323;49.394;8.434;2024-02-23T11:50:20;13.00;99.40
19817;DHT22;68323;49.394;8.434;2024-02-23T11:52:46;13.00;99.70
19817;DHT22;68323;49.394;8.434;2024-02-23T11:55:12;12.90;99.40
19817;DHT22;68323;49.394;8.434;2024-02-23T11:57:47;13.00;99.90
19817;DHT22;68323;49.394;8.434;2024-02-23T12:00:13;13.00;99.60
19817;DHT22;68323;49.394;8.434;2024-02-23T12:02:39;13.00;99.20
19817;DHT22;68323;49.394;8.434;2024-02-23T12:05:05;13.10;99.60
19817;DHT22;68323;49.394;8.434;2024-02-23T12:07:32;13.00;99.90
19817;DHT22;68323;49.394;8.434;2024-02-23T12:09:58;13.00;99.90
19817;DHT22;68323;49.394;8.434;2024-02-23T12:12:27;13.00;99.90
19817;DHT22;68323;49.394;8.434;2024-02-23T12:14:53;13.00;99.90
19817;DHT22;68323;49.394;8.434;2024-02-23T12:17:18;12.90;99.90
19817;DHT22;68323;49.394;8.434;2024-02-23T12:19:44;12.80;99.90
19817;DHT22;68323;49.394;8.434;2024-02-23T12:22:13;12.50;99.90
19817;DHT22;68323;49.394;8.434;2024-02-23T12:24:40;12.40;99.90
19817;DHT22;68323;49.394;8.434;2024-02-23T12:27:07;12.30;99.90
19817;DHT22;68323;49.394;8.434;2024-02-23T12:29:32;12.30;99.90
19817;DHT22;68323;49.394;8.434;2024-02-23T12:32:07;12.30;99.90
19817;DHT22;68323;49.394;8.434;2024-02-23T12:34:33;12.40;99.90
19817;DHT22;68323;49.394;8.434;2024-02-23T12:37:01;12.40;99.90
19817;DHT22;68323;49.394;8.434;2024-02-23T12:39:27;12.30;99.90
19817;DHT22;68323;49.394;8.434;2024-02-23T12:41:53;12.30;99.90
19817;DHT22;68323;49.394;8.434;2024-02-23T12:44:18;12.30;99.90
19817;DHT22;68323;49.394;8.434;2024-02-23T12:46:44;12.30;99.90
19817;DHT22;68323;49.394;8.434;2024-02-23T12:49:09;12.40;99.90
19817;DHT22;68323;49.394;8.434;2024-02-23T12:51:35;12.50;99.90
19817;DHT22;68323;49.394;8.434;2024-02-23T12:54:00;12.50;99.90
19817;DHT22;68323;49.394;8.434;2024-02-23T12:56:26;12.60;99.90
19817;DHT22;68323;49.394;8.434;2024-02-23T12:58:52;12.60;99.90
19817;DHT22;68323;49.394;8.434;2024-02-23T13:01:19;12.60;99.90
19817;DHT22;68323;49.394;8.434;2024-02-23T13:03:45;12.70;99.90
19817;DHT22;68323;49.394;8.434;2024-02-23T13:06:10;12.60;99.90
19817;DHT22;68323;49.394;8.434;2024-02-23T13:08:36;12.60;99.90
19817;DHT22;68323;49.394;8.434;2024-02-23T13:11:02;12.60;99.90
19817;DHT22;68323;49.394;8.434;2024-02-23T13:13:28;12.60;99.90
19817;DHT22;68323;49.394;8.434;2024-02-23T13:15:54;12.70;99.90
19817;DHT22;68323;49.394;8.434;2024-02-23T13:18:20;12.80;99.90
19817;DHT22;68323;49.394;8.434;2024-02-23T13:20:45;12.80;99.90
19817;DHT22;68323;49.394;8.434;2024-02-23T13:40:24;12.80;99.90
19817;DHT22;68323;49.394;8.434;2024-02-23T13:42:50;12.80;99.90
19817;DHT22;68323;49.394;8.434;2024-02-23T13:45:17;12.70;99.90
19817;DHT22;68323;49.394;8.434;2024-02-23T13:47:59;12.60;99.90
19817;DHT22;68323;49.394;8.434;2024-02-23T13:50:25;12.50;99.90
19817;DHT22;68323;49.394;8.434;2024-02-23T13:52:51;12.40;99.90
19817;DHT22;68323;49.394;8.434;2024-02-23T13:55:17;12.30;99.90
19817;DHT22;68323;49.394;8.434;2024-02-23T13:57:43;12.20;99.90
19817;DHT22;68323;49.394;8.434;2024-02-23T14:00:09;12.10;99.90
19817;DHT22;68323;49.394;8.434;2024-02-23T14:02:38;12.10;99.90
19817;DHT22;68323;49.394;8.434;2024-02-23T14:05:06;12.10;99.90
19817;DHT22;68323;49.394;8.434;2024-02-23T14:07:34;12.10;99.90
19817;DHT22;68323;49.394;8.434;2024-02-23T14:10:00;12.20;99.90
19817;DHT22;68323;49.394;8.434;2024-02-23T14:12:28;12.20;99.90
19817;DHT22;68323;49.394;8.434;2024-02-23T14:14:53;12.20;99.90
19817;DHT22;68323;49.394;8.434;2024-02-23T14:17:19;12.20;99.90
19817;DHT22;68323;49.394;8.434;2024-02-23T14:19:44;12.30;99.90
19817;DHT22;68323;49.394;8.434;2024-02-23T14:22:10;12.30;99.90
19817;DHT22;68323;49.394;8.434;2024-02-23T14:24:36;12.30;99.90
19817;DHT22;68323;49.394;8.434;2024-02-23T14:27:01;12.30;99.90
19817;DHT22;68323;49.394;8.434;2024-02-23T14:29:27;12.40;99.90
19817;DHT22;68323;49.394;8.434;2024-02-23T14:31:53;12.40;99.90
19817;DHT22;68323;49.394;8.434;2024-02-23T14:34:18;12.40;99.90
19817;DHT22;68323;49.394;8.434;2024-02-23T14:36:45;12.50;99.90
19817;DHT22;68323;49.394;8.434;2024-02-23T14:39:10;12.60;99.90
19817;DHT22;68323;49.394;8.434;2024-02-23T14:41:38;12.70;99.90
19817;DHT22;68323;49.394;8.434;2024-02-23T14:44:04;12.80;99.90
19817;DHT22;68323;49.394;8.434;2024-02-23T14:46:30;12.90;99.90
19817;DHT22;68323;49.394;8.434;2024-02-23T14:48:55;13.00;99.90
19817;DHT22;68323;49.394;8.434;2024-02-23T14:51:21;13.00;99.90
19817;DHT22;68323;49.394;8.434;2024-02-23T14:53:46;12.90;99.90
19817;DHT22;68323;49.394;8.434;2024-02-23T14:56:12;12.90;99.90
19817;DHT22;68323;49.394;8.434;2024-02-23T14:58:38;13.00;99.90
19817;DHT22;68323;49.394;8.434;2024-02-23T15:01:04;12.90;99.90
19817;DHT22;68323;49.394;8.434;2024-02-23T15:03:30;12.80;99.90
19817;DHT22;68323;49.394;8.434;2024-02-23T15:05:58;12.80;99.90
19817;DHT22;68323;49.394;8.434;2024-02-23T15:08:24;12.70;99.90
19817;DHT22;68323;49.394;8.434;2024-02-23T15:10:49;12.70;99.90
19817;DHT22;68323;49.394;8.434;2024-02-23T15:13:17;12.60;99.90
19817;DHT22;68323;49.394;8.434;2024-02-23T15:15:42;12.60;99.90
19817;DHT22;68323;49.394;8.434;2024-02-23T15:18:08;12.60;99.90
19817;DHT22;68323;49.394;8.434;2024-02-23T15:20:33;12.70;99.90
19817;DHT22;68323;49.394;8.434;2024-02-23T15:22:59;12.70;99.90
19817;DHT22;68323;49.394;8.434;2024-02-23T15:25:25;12.80;99.90
19817;DHT22;68323;49.394;8.434;2024-02-23T15:27:50;12.90;99.90
19817;DHT22;68323;49.394;8.434;2024-02-23T15:30:17;13.00;99.90
19817;DHT22;68323;49.394;8.434;2024-02-23T15:32:43;13.00;99.90
19817;DHT22;68323;49.394;8.434;2024-02-23T15:35:09;13.00;99.90
19817;DHT22;68323;49.394;8.434;2024-02-23T15:37:34;13.00;99.90
19817;DHT22;68323;49.394;8.434;2024-02-23T15:40:01;12.90;99.90
19817;DHT22;68323;49.394;8.434;2024-02-23T15:42:29;12.80;99.90
19817;DHT22;68323;49.394;8.434;2024-02-23T15:44:55;12.70;99.90
19817;DHT22;68323;49.394;8.434;2024-02-23T15:47:21;12.60;99.90
19817;DHT22;68323;49.394;8.434;2024-02-23T15:49:47;12.50;99.90
19817;DHT22;68323;49.394;8.434;2024-02-23T15:52:12;12.40;99.90
19817;DHT22;68323;49.394;8.434;2024-02-23T15:54:38;12.30;99.90
19817;DHT22;68323;49.394;8.434;2024-02-23T15:57:03;12.20;99.90
19817;DHT22;68323;49.394;8.434;2024-02-23T15:59:29;12.10;99.90
19817;DHT22;68323;49.394;8.434;2024-02-23T16:01:56;12.00;99.90
19817;DHT22;68323;49.394;8.434;2024-02-23T16:04:22;12.00;99.90
19817;DHT22;68323;49.394;8.434;2024-02-23T16:06:48;11.90;99.90
19817;DHT22;68323;49.394;8.434;2024-02-23T16:09:13;11.90;99.90
19817;DHT22;68323;49.394;8.434;2024-02-23T16:11:45;11.90;99.90
19817;DHT22;68323;49.394;8.434;2024-02-23T16:14:14;11.80;99.90
19817;DHT22;68323;49.394;8.434;2024-02-23T16:16:40;11.80;99.90
19817;DHT22;68323;49.394;8.434;2024-02-23T16:19:07;11.70;99.90
19817;DHT22;68323;49.394;8.434;2024-02-23T16:21:35;11.70;99.90
19817;DHT22;68323;49.394;8.434;2024-02-23T16:24:05;11.70;99.90
19817;DHT22;68323;49.394;8.434;2024-02-23T16:26:32;11.60;99.90
19817;DHT22;68323;49.394;8.434;2024-02-23T16:29:04;11.60;99.90
19817;DHT22;68323;49.394;8.434;2024-02-23T16:31:30;11.60;99.90
19817;DHT22;68323;49.394;8.434;2024-02-23T16:33:56;11.50;99.90
19817;DHT22;68323;49.394;8.434;2024-02-23T16:36:21;11.50;99.90
19817;DHT22;68323;49.394;8.434;2024-02-23T16:38:47;11.40;99.90
19817;DHT22;68323;49.394;8.434;2024-02-23T16:41:14;11.30;99.90
19817;DHT22;68323;49.394;8.434;2024-02-23T16:43:39;11.30;99.90
19817;DHT22;68323;49.394;8.434;2024-02-23T16:46:05;11.30;99.90
19817;DHT22;68323;49.394;8.434;2024-02-23T16:48:30;11.20;99.90
19817;DHT22;68323;49.394;8.434;2024-02-23T16:50:56;11.20;99.90
19817;DHT22;68323;49.394;8.434;2024-02-23T16:53:25;11.20;99.90
19817;DHT22;68323;49.394;8.434;2024-02-23T16:55:50;11.10;99.90
19817;DHT22;68323;49.394;8.434;2024-02-23T16:58:16;11.10;99.90
19817;DHT22;68323;49.394;8.434;2024-02-23T17:00:45;11.10;99.90
19817;DHT22;68323;49.394;8.434;2024-02-23T17:03:11;11.10;99.90
19817;DHT22;68323;49.394;8.434;2024-02-23T17:05:36;11.00;99.90
19817;DHT22;68323;49.394;8.434;2024-02-23T17:08:02;11.00;99.90
19817;DHT22;68323;49.394;8.434;2024-02-23T17:10:27;11.00;99.90
19817;DHT22;68323;49.394;8.434;2024-02-23T17:12:53;11.00;99.90
19817;DHT22;68323;49.394;8.434;2024-02-23T17:25:06;10.70;99.90
19817;DHT22;68323;49.394;8.434;2024-02-23T17:27:32;10.80;99.90
19817;DHT22;68323;49.394;8.434;2024-02-23T17:30:00;10.70;99.90
19817;DHT22;68323;49.394;8.434;2024-02-23T17:32:25;10.70;99.90
19817;DHT22;68323;49.394;8.434;2024-02-23T17:34:51;10.70;99.90
19817;DHT22;68323;49.394;8.434;2024-02-23T17:37:16;10.70;99.90